sensor_id;sensor_type;location;lat;lon;timestamp;P1;durP1;ratioP1;P2;durP2;ratioP2
62574;SDS011;70119;45.638;11.714;2023-11-22T00:00:07;7.47;;;4.97;;
62574;SDS011;70119;45.638;11.714;2023-11-22T00:02:34;7.85;;;5.25;;
62574;SDS011;70119;45.638;11.714;2023-11-22T00:05:00;9.25;;;6.03;;
62574;SDS011;70119;45.638;11.714;2023-11-22T00:07:27;7.32;;;5.13;;
62574;SDS011;70119;45.638;11.714;2023-11-22T00:09:54;8.30;;;5.50;;
62574;SDS011;70119;45.638;11.714;2023-11-22T00:12:20;9.82;;;5.45;;
62574;SDS011;70119;45.638;11.714;2023-11-22T00:14:48;7.95;;;5.00;;
62574;SDS011;70119;45.638;11.714;2023-11-22T00:17:15;7.22;;;5.18;;
62574;SDS011;70119;45.638;11.714;2023-11-22T00:19:44;8.13;;;5.35;;
62574;SDS011;70119;45.638;11.714;2023-11-22T00:22:10;7.40;;;5.13;;
62574;SDS011;70119;45.638;11.714;2023-11-22T00:24:40;8.13;;;5.22;;
62574;SDS011;70119;45.638;11.714;2023-11-22T00:27:06;7.53;;;5.30;;
62574;SDS011;70119;45.638;11.714;2023-11-22T00:29:33;7.95;;;5.32;;
62574;SDS011;70119;45.638;11.714;2023-11-22T00:31:59;7.22;;;5.05;;
62574;SDS011;70119;45.638;11.714;2023-11-22T00:34:26;9.70;;;5.30;;
62574;SDS011;70119;45.638;11.714;2023-11-22T00:36:52;7.63;;;5.28;;
62574;SDS011;70119;45.638;11.714;2023-11-22T00:39:18;7.32;;;4.90;;
62574;SDS011;70119;45.638;11.714;2023-11-22T00:41:44;6.50;;;4.78;;
62574;SDS011;70119;45.638;11.714;2023-11-22T00:44:10;7.35;;;5.20;;
62574;SDS011;70119;45.638;11.714;2023-11-22T00:46:37;7.63;;;5.07;;
62574;SDS011;70119;45.638;11.714;2023-11-22T00:49:03;7.38;;;4.95;;
62574;SDS011;70119;45.638;11.714;2023-11-22T00:51:30;6.93;;;5.00;;
62574;SDS011;70119;45.638;11.714;2023-11-22T00:53:57;6.95;;;4.95;;
62574;SDS011;70119;45.638;11.714;2023-11-22T00:56:26;6.82;;;4.90;;
62574;SDS011;70119;45.638;11.714;2023-11-22T00:58:53;7.07;;;4.80;;
62574;SDS011;70119;45.638;11.714;2023-11-22T01:01:20;7.95;;;5.20;;
62574;SDS011;70119;45.638;11.714;2023-11-22T01:03:46;8.30;;;5.38;;
62574;SDS011;70119;45.638;11.714;2023-11-22T01:06:12;8.23;;;5.05;;
62574;SDS011;70119;45.638;11.714;2023-11-22T01:08:38;6.70;;;4.88;;
62574;SDS011;70119;45.638;11.714;2023-11-22T01:11:04;7.43;;;4.90;;
62574;SDS011;70119;45.638;11.714;2023-11-22T01:13:33;7.78;;;5.25;;
62574;SDS011;70119;45.638;11.714;2023-11-22T01:16:11;6.97;;;4.85;;
62574;SDS011;70119;45.638;11.714;2023-11-22T01:18:39;7.60;;;4.95;;
62574;SDS011;70119;45.638;11.714;2023-11-22T01:21:05;7.57;;;5.18;;
62574;SDS011;70119;45.638;11.714;2023-11-22T01:23:32;7.22;;;4.80;;
62574;SDS011;70119;45.638;11.714;2023-11-22T01:25:58;7.75;;;5.25;;
62574;SDS011;70119;45.638;11.714;2023-11-22T01:28:25;6.75;;;4.82;;
62574;SDS011;70119;45.638;11.714;2023-11-22T01:30:52;6.57;;;4.75;;
62574;SDS011;70119;45.638;11.714;2023-11-22T01:33:20;7.53;;;4.88;;
62574;SDS011;70119;45.638;11.714;2023-11-22T01:35:46;6.88;;;4.80;;
62574;SDS011;70119;45.638;11.714;2023-11-22T01:38:13;8.32;;;5.22;;
62574;SDS011;70119;45.638;11.714;2023-11-22T01:40:43;8.40;;;5.50;;
62574;SDS011;70119;45.638;11.714;2023-11-22T01:43:14;9.65;;;5.25;;
62574;SDS011;70119;45.638;11.714;2023-11-22T01:45:44;6.70;;;4.63;;
62574;SDS011;70119;45.638;11.714;2023-11-22T01:48:11;6.40;;;4.80;;
62574;SDS011;70119;45.638;11.714;2023-11-22T01:50:37;6.65;;;4.70;;
62574;SDS011;70119;45.638;11.714;2023-11-22T01:53:05;6.63;;;4.70;;
62574;SDS011;70119;45.638;11.714;2023-11-22T01:55:32;7.70;;;5.57;;
62574;SDS011;70119;45.638;11.714;2023-11-22T01:57:59;7.15;;;4.63;;
62574;SDS011;70119;45.638;11.714;2023-11-22T02:00:31;7.82;;;5.00;;
62574;SDS011;70119;45.638;11.714;2023-11-22T02:03:01;7.45;;;5.10;;
62574;SDS011;70119;45.638;11.714;2023-11-22T02:05:27;6.57;;;4.70;;
62574;SDS011;70119;45.638;11.714;2023-11-22T02:07:54;7.38;;;4.90;;
62574;SDS011;70119;45.638;11.714;2023-11-22T02:10:21;7.15;;;4.75;;
62574;SDS011;70119;45.638;11.714;2023-11-22T02:12:49;6.78;;;4.25;;
62574;SDS011;70119;45.638;11.714;2023-11-22T02:15:15;7.03;;;4.80;;
62574;SDS011;70119;45.638;11.714;2023-11-22T02:17:40;6.35;;;4.28;;
62574;SDS011;70119;45.638;11.714;2023-11-22T02:20:07;7.28;;;4.68;;
62574;SDS011;70119;45.638;11.714;2023-11-22T02:22:45;7.45;;;4.80;;
62574;SDS011;70119;45.638;11.714;2023-11-22T02:25:12;8.45;;;4.93;;
62574;SDS011;70119;45.638;11.714;2023-11-22T02:27:40;7.80;;;4.78;;
62574;SDS011;70119;45.638;11.714;2023-11-22T02:30:07;6.68;;;4.60;;
62574;SDS011;70119;45.638;11.714;2023-11-22T02:32:34;6.82;;;4.50;;
62574;SDS011;70119;45.638;11.714;2023-11-22T02:35:00;6.72;;;4.70;;
62574;SDS011;70119;45.638;11.714;2023-11-22T02:37:26;7.15;;;4.90;;
62574;SDS011;70119;45.638;11.714;2023-11-22T02:42:49;7.75;;;4.70;;
62574;SDS011;70119;45.638;11.714;2023-11-22T02:45:17;6.73;;;4.67;;
62574;SDS011;70119;45.638;11.714;2023-11-22T02:47:44;6.70;;;4.80;;
62574;SDS011;70119;45.638;11.714;2023-11-22T02:50:14;8.05;;;4.53;;
62574;SDS011;70119;45.638;11.714;2023-11-22T02:52:40;6.57;;;4.38;;
62574;SDS011;70119;45.638;11.714;2023-11-22T02:55:07;6.47;;;4.38;;
62574;SDS011;70119;45.638;11.714;2023-11-22T02:57:37;6.18;;;4.28;;
62574;SDS011;70119;45.638;11.714;2023-11-22T03:00:07;6.03;;;4.30;;
62574;SDS011;70119;45.638;11.714;2023-11-22T03:02:38;7.13;;;4.30;;
62574;SDS011;70119;45.638;11.714;2023-11-22T03:05:07;6.90;;;4.47;;
62574;SDS011;70119;45.638;11.714;2023-11-22T03:07:34;6.63;;;4.35;;
62574;SDS011;70119;45.638;11.714;2023-11-22T03:10:01;6.32;;;3.95;;
62574;SDS011;70119;45.638;11.714;2023-11-22T03:12:27;6.25;;;4.00;;
62574;SDS011;70119;45.638;11.714;2023-11-22T03:14:54;6.68;;;4.60;;
62574;SDS011;70119;45.638;11.714;2023-11-22T03:17:24;6.25;;;4.43;;
62574;SDS011;70119;45.638;11.714;2023-11-22T03:19:50;6.22;;;4.40;;
62574;SDS011;70119;45.638;11.714;2023-11-22T03:22:17;6.10;;;4.15;;
62574;SDS011;70119;45.638;11.714;2023-11-22T03:24:43;6.32;;;4.18;;
62574;SDS011;70119;45.638;11.714;2023-11-22T03:27:09;5.68;;;4.13;;
62574;SDS011;70119;45.638;11.714;2023-11-22T03:29:35;6.32;;;4.40;;
62574;SDS011;70119;45.638;11.714;2023-11-22T03:32:03;6.18;;;3.97;;
62574;SDS011;70119;45.638;11.714;2023-11-22T03:34:30;6.10;;;4.30;;
62574;SDS011;70119;45.638;11.714;2023-11-22T03:36:56;7.13;;;4.18;;
62574;SDS011;70119;45.638;11.714;2023-11-22T03:39:22;6.50;;;3.83;;
62574;SDS011;70119;45.638;11.714;2023-11-22T03:41:48;5.72;;;4.07;;
62574;SDS011;70119;45.638;11.714;2023-11-22T03:44:15;7.07;;;4.30;;
62574;SDS011;70119;45.638;11.714;2023-11-22T03:46:41;7.72;;;4.25;;
62574;SDS011;70119;45.638;11.714;2023-11-22T03:49:08;6.00;;;4.20;;
62574;SDS011;70119;45.638;11.714;2023-11-22T03:51:34;6.05;;;3.92;;
62574;SDS011;70119;45.638;11.714;2023-11-22T03:54:01;5.75;;;3.85;;
62574;SDS011;70119;45.638;11.714;2023-11-22T03:56:28;6.20;;;3.90;;
62574;SDS011;70119;45.638;11.714;2023-11-22T03:58:54;6.85;;;4.00;;
62574;SDS011;70119;45.638;11.714;2023-11-22T04:01:20;5.22;;;3.70;;
62574;SDS011;70119;45.638;11.714;2023-11-22T04:03:47;5.63;;;4.03;;
62574;SDS011;70119;45.638;11.714;2023-11-22T04:06:16;5.88;;;3.58;;
62574;SDS011;70119;45.638;11.714;2023-11-22T04:08:43;6.00;;;3.90;;
62574;SDS011;70119;45.638;11.714;2023-11-22T04:11:12;6.63;;;3.88;;
62574;SDS011;70119;45.638;11.714;2023-11-22T04:13:38;5.43;;;3.58;;
62574;SDS011;70119;45.638;11.714;2023-11-22T04:16:04;5.35;;;3.75;;
62574;SDS011;70119;45.638;11.714;2023-11-22T04:18:35;6.22;;;3.70;;
62574;SDS011;70119;45.638;11.714;2023-11-22T04:21:02;6.03;;;3.50;;
62574;SDS011;70119;45.638;11.714;2023-11-22T04:23:30;5.32;;;3.70;;
62574;SDS011;70119;45.638;11.714;2023-11-22T04:25:57;5.00;;;3.70;;
62574;SDS011;70119;45.638;11.714;2023-11-22T04:28:23;5.10;;;3.60;;
62574;SDS011;70119;45.638;11.714;2023-11-22T04:30:50;4.80;;;3.50;;
62574;SDS011;70119;45.638;11.714;2023-11-22T04:33:17;6.00;;;3.85;;
62574;SDS011;70119;45.638;11.714;2023-11-22T04:35:46;5.30;;;3.58;;
62574;SDS011;70119;45.638;11.714;2023-11-22T04:38:13;5.72;;;3.60;;
62574;SDS011;70119;45.638;11.714;2023-11-22T04:40:39;5.22;;;3.63;;
62574;SDS011;70119;45.638;11.714;2023-11-22T04:43:07;5.55;;;3.58;;
62574;SDS011;70119;45.638;11.714;2023-11-22T04:45:33;6.18;;;3.53;;
62574;SDS011;70119;45.638;11.714;2023-11-22T04:48:00;5.15;;;3.58;;
62574;SDS011;70119;45.638;11.714;2023-11-22T04:50:26;5.22;;;3.60;;
62574;SDS011;70119;45.638;11.714;2023-11-22T04:52:52;4.72;;;3.40;;
62574;SDS011;70119;45.638;11.714;2023-11-22T04:55:17;5.03;;;3.50;;
62574;SDS011;70119;45.638;11.714;2023-11-22T04:57:50;5.40;;;3.75;;
62574;SDS011;70119;45.638;11.714;2023-11-22T05:00:16;5.78;;;3.30;;
62574;SDS011;70119;45.638;11.714;2023-11-22T05:02:42;5.20;;;3.40;;
62574;SDS011;70119;45.638;11.714;2023-11-22T05:05:08;4.65;;;3.38;;
62574;SDS011;70119;45.638;11.714;2023-11-22T05:07:37;4.43;;;3.28;;
62574;SDS011;70119;45.638;11.714;2023-11-22T05:10:03;5.05;;;3.33;;
62574;SDS011;70119;45.638;11.714;2023-11-22T05:12:30;5.15;;;3.50;;
62574;SDS011;70119;45.638;11.714;2023-11-22T05:14:56;4.80;;;3.25;;
62574;SDS011;70119;45.638;11.714;2023-11-22T05:17:22;4.80;;;3.40;;
62574;SDS011;70119;45.638;11.714;2023-11-22T05:19:49;4.85;;;3.38;;
62574;SDS011;70119;45.638;11.714;2023-11-22T05:22:16;4.95;;;3.60;;
62574;SDS011;70119;45.638;11.714;2023-11-22T05:24:42;5.03;;;3.38;;
62574;SDS011;70119;45.638;11.714;2023-11-22T05:27:09;5.93;;;3.60;;
62574;SDS011;70119;45.638;11.714;2023-11-22T05:29:35;4.88;;;3.50;;
62574;SDS011;70119;45.638;11.714;2023-11-22T05:32:01;6.15;;;3.33;;
62574;SDS011;70119;45.638;11.714;2023-11-22T05:34:28;4.50;;;3.50;;
62574;SDS011;70119;45.638;11.714;2023-11-22T05:36:54;5.32;;;3.30;;
62574;SDS011;70119;45.638;11.714;2023-11-22T05:39:20;6.35;;;3.30;;
62574;SDS011;70119;45.638;11.714;2023-11-22T05:41:50;5.43;;;3.33;;
62574;SDS011;70119;45.638;11.714;2023-11-22T05:44:16;5.15;;;3.63;;
62574;SDS011;70119;45.638;11.714;2023-11-22T05:46:42;5.95;;;3.40;;
62574;SDS011;70119;45.638;11.714;2023-11-22T05:49:07;5.55;;;3.22;;
62574;SDS011;70119;45.638;11.714;2023-11-22T05:51:35;4.97;;;3.10;;
62574;SDS011;70119;45.638;11.714;2023-11-22T05:54:06;4.03;;;2.92;;
62574;SDS011;70119;45.638;11.714;2023-11-22T05:56:32;5.40;;;3.33;;
62574;SDS011;70119;45.638;11.714;2023-11-22T05:58:58;5.47;;;3.40;;
62574;SDS011;70119;45.638;11.714;2023-11-22T06:01:26;4.57;;;3.40;;
62574;SDS011;70119;45.638;11.714;2023-11-22T06:03:52;5.40;;;3.42;;
62574;SDS011;70119;45.638;11.714;2023-11-22T06:06:18;4.75;;;3.22;;
62574;SDS011;70119;45.638;11.714;2023-11-22T06:08:46;5.43;;;3.20;;
62574;SDS011;70119;45.638;11.714;2023-11-22T06:11:13;4.07;;;3.03;;
62574;SDS011;70119;45.638;11.714;2023-11-22T06:13:40;4.15;;;3.05;;
62574;SDS011;70119;45.638;11.714;2023-11-22T06:16:08;4.68;;;3.05;;
62574;SDS011;70119;45.638;11.714;2023-11-22T06:18:34;5.93;;;3.28;;
62574;SDS011;70119;45.638;11.714;2023-11-22T06:21:05;8.60;;;2.83;;
62574;SDS011;70119;45.638;11.714;2023-11-22T06:23:32;11.40;;;3.10;;
62574;SDS011;70119;45.638;11.714;2023-11-22T06:25:58;5.72;;;3.15;;
62574;SDS011;70119;45.638;11.714;2023-11-22T06:28:24;6.68;;;3.30;;
62574;SDS011;70119;45.638;11.714;2023-11-22T06:30:50;5.78;;;3.58;;
62574;SDS011;70119;45.638;11.714;2023-11-22T06:33:16;5.40;;;3.38;;
62574;SDS011;70119;45.638;11.714;2023-11-22T06:35:42;4.80;;;3.20;;
62574;SDS011;70119;45.638;11.714;2023-11-22T06:38:08;4.10;;;2.90;;
62574;SDS011;70119;45.638;11.714;2023-11-22T06:40:35;4.82;;;3.20;;
62574;SDS011;70119;45.638;11.714;2023-11-22T06:43:05;4.78;;;3.25;;
62574;SDS011;70119;45.638;11.714;2023-11-22T06:45:42;4.65;;;3.00;;
62574;SDS011;70119;45.638;11.714;2023-11-22T06:48:21;8.32;;;3.38;;
62574;SDS011;70119;45.638;11.714;2023-11-22T06:53:28;5.88;;;3.45;;
62574;SDS011;70119;45.638;11.714;2023-11-22T06:55:54;5.03;;;3.25;;
62574;SDS011;70119;45.638;11.714;2023-11-22T06:58:20;7.05;;;3.10;;
62574;SDS011;70119;45.638;11.714;2023-11-22T07:00:46;5.22;;;3.40;;
62574;SDS011;70119;45.638;11.714;2023-11-22T07:03:13;5.00;;;3.20;;
62574;SDS011;70119;45.638;11.714;2023-11-22T07:05:40;5.55;;;3.38;;
62574;SDS011;70119;45.638;11.714;2023-11-22T07:08:06;5.22;;;3.00;;
62574;SDS011;70119;45.638;11.714;2023-11-22T07:10:32;5.63;;;3.53;;
62574;SDS011;70119;45.638;11.714;2023-11-22T07:13:00;5.38;;;3.35;;
62574;SDS011;70119;45.638;11.714;2023-11-22T07:15:28;4.78;;;3.30;;
62574;SDS011;70119;45.638;11.714;2023-11-22T07:17:54;6.50;;;3.10;;
62574;SDS011;70119;45.638;11.714;2023-11-22T07:20:20;7.60;;;3.40;;
62574;SDS011;70119;45.638;11.714;2023-11-22T07:22:46;5.82;;;3.13;;
62574;SDS011;70119;45.638;11.714;2023-11-22T07:25:20;4.93;;;3.30;;
62574;SDS011;70119;45.638;11.714;2023-11-22T07:27:50;5.20;;;2.83;;
62574;SDS011;70119;45.638;11.714;2023-11-22T07:30:17;5.50;;;3.10;;
62574;SDS011;70119;45.638;11.714;2023-11-22T07:32:45;4.95;;;3.17;;
62574;SDS011;70119;45.638;11.714;2023-11-22T07:35:11;4.55;;;3.05;;
62574;SDS011;70119;45.638;11.714;2023-11-22T07:37:37;4.47;;;3.03;;
62574;SDS011;70119;45.638;11.714;2023-11-22T07:40:10;4.38;;;3.10;;
62574;SDS011;70119;45.638;11.714;2023-11-22T07:42:39;5.50;;;3.30;;
62574;SDS011;70119;45.638;11.714;2023-11-22T07:45:06;5.32;;;3.20;;
62574;SDS011;70119;45.638;11.714;2023-11-22T07:47:35;4.25;;;2.92;;
62574;SDS011;70119;45.638;11.714;2023-11-22T07:50:01;5.05;;;3.00;;
62574;SDS011;70119;45.638;11.714;2023-11-22T07:52:28;5.60;;;3.40;;
62574;SDS011;70119;45.638;11.714;2023-11-22T07:54:57;7.28;;;3.58;;
62574;SDS011;70119;45.638;11.714;2023-11-22T07:57:24;6.00;;;3.28;;
62574;SDS011;70119;45.638;11.714;2023-11-22T07:59:50;5.25;;;3.40;;
62574;SDS011;70119;45.638;11.714;2023-11-22T08:02:21;4.75;;;3.10;;
62574;SDS011;70119;45.638;11.714;2023-11-22T08:04:48;5.30;;;3.28;;
62574;SDS011;70119;45.638;11.714;2023-11-22T08:07:15;4.95;;;3.10;;
62574;SDS011;70119;45.638;11.714;2023-11-22T08:09:42;4.38;;;2.80;;
62574;SDS011;70119;45.638;11.714;2023-11-22T08:12:08;4.53;;;2.50;;
62574;SDS011;70119;45.638;11.714;2023-11-22T08:14:39;4.68;;;2.88;;
62574;SDS011;70119;45.638;11.714;2023-11-22T08:17:09;4.78;;;2.67;;
62574;SDS011;70119;45.638;11.714;2023-11-22T08:19:37;4.55;;;2.80;;
62574;SDS011;70119;45.638;11.714;2023-11-22T08:22:05;4.03;;;2.72;;
62574;SDS011;70119;45.638;11.714;2023-11-22T08:24:31;3.92;;;2.60;;
62574;SDS011;70119;45.638;11.714;2023-11-22T08:26:57;4.25;;;2.60;;
62574;SDS011;70119;45.638;11.714;2023-11-22T08:29:26;3.45;;;2.60;;
62574;SDS011;70119;45.638;11.714;2023-11-22T08:31:51;3.75;;;2.97;;
62574;SDS011;70119;45.638;11.714;2023-11-22T08:34:17;4.38;;;2.50;;
62574;SDS011;70119;45.638;11.714;2023-11-22T08:36:43;4.85;;;2.72;;
62574;SDS011;70119;45.638;11.714;2023-11-22T08:39:09;4.28;;;2.80;;
62574;SDS011;70119;45.638;11.714;2023-11-22T08:41:35;5.20;;;2.95;;
62574;SDS011;70119;45.638;11.714;2023-11-22T08:44:03;5.95;;;3.00;;
62574;SDS011;70119;45.638;11.714;2023-11-22T08:46:29;5.07;;;3.05;;
62574;SDS011;70119;45.638;11.714;2023-11-22T08:48:55;4.60;;;3.00;;
62574;SDS011;70119;45.638;11.714;2023-11-22T08:51:21;4.47;;;2.80;;
62574;SDS011;70119;45.638;11.714;2023-11-22T08:53:47;7.53;;;3.03;;
62574;SDS011;70119;45.638;11.714;2023-11-22T08:56:14;5.85;;;3.13;;
62574;SDS011;70119;45.638;11.714;2023-11-22T08:58:41;4.65;;;3.13;;
62574;SDS011;70119;45.638;11.714;2023-11-22T09:01:08;4.03;;;2.92;;
62574;SDS011;70119;45.638;11.714;2023-11-22T09:03:34;4.40;;;3.00;;
62574;SDS011;70119;45.638;11.714;2023-11-22T09:06:00;5.95;;;3.00;;
62574;SDS011;70119;45.638;11.714;2023-11-22T09:08:26;5.15;;;3.20;;
62574;SDS011;70119;45.638;11.714;2023-11-22T09:10:52;5.47;;;3.30;;
62574;SDS011;70119;45.638;11.714;2023-11-22T09:13:18;5.85;;;3.30;;
62574;SDS011;70119;45.638;11.714;2023-11-22T09:15:45;6.00;;;3.20;;
62574;SDS011;70119;45.638;11.714;2023-11-22T09:18:11;4.90;;;3.40;;
62574;SDS011;70119;45.638;11.714;2023-11-22T09:20:37;5.70;;;3.30;;
62574;SDS011;70119;45.638;11.714;2023-11-22T09:23:04;5.60;;;3.17;;
62574;SDS011;70119;45.638;11.714;2023-11-22T09:25:30;5.15;;;3.40;;
62574;SDS011;70119;45.638;11.714;2023-11-22T09:27:58;5.40;;;3.28;;
62574;SDS011;70119;45.638;11.714;2023-11-22T09:30:26;5.82;;;3.83;;
62574;SDS011;70119;45.638;11.714;2023-11-22T09:33:07;5.10;;;3.20;;
62574;SDS011;70119;45.638;11.714;2023-11-22T09:35:35;4.78;;;3.22;;
62574;SDS011;70119;45.638;11.714;2023-11-22T09:38:04;7.53;;;3.40;;
62574;SDS011;70119;45.638;11.714;2023-11-22T09:40:45;4.75;;;3.40;;
62574;SDS011;70119;45.638;11.714;2023-11-22T09:43:13;5.72;;;3.40;;
62574;SDS011;70119;45.638;11.714;2023-11-22T09:45:49;5.25;;;3.08;;
62574;SDS011;70119;45.638;11.714;2023-11-22T09:48:20;6.10;;;3.70;;
62574;SDS011;70119;45.638;11.714;2023-11-22T09:53:51;5.07;;;3.45;;
62574;SDS011;70119;45.638;11.714;2023-11-22T09:56:22;5.53;;;3.50;;
62574;SDS011;70119;45.638;11.714;2023-11-22T09:58:51;5.32;;;3.33;;
62574;SDS011;70119;45.638;11.714;2023-11-22T10:01:24;6.32;;;3.25;;
62574;SDS011;70119;45.638;11.714;2023-11-22T10:03:54;4.75;;;3.40;;
62574;SDS011;70119;45.638;11.714;2023-11-22T10:06:22;4.85;;;3.30;;
62574;SDS011;70119;45.638;11.714;2023-11-22T10:08:51;6.43;;;3.65;;
62574;SDS011;70119;45.638;11.714;2023-11-22T10:11:18;5.70;;;3.15;;
62574;SDS011;70119;45.638;11.714;2023-11-22T10:13:49;5.53;;;3.30;;
62574;SDS011;70119;45.638;11.714;2023-11-22T10:16:16;5.05;;;3.35;;
62574;SDS011;70119;45.638;11.714;2023-11-22T10:18:45;5.28;;;3.40;;
62574;SDS011;70119;45.638;11.714;2023-11-22T10:21:20;5.68;;;3.47;;
62574;SDS011;70119;45.638;11.714;2023-11-22T10:23:53;5.60;;;3.28;;
62574;SDS011;70119;45.638;11.714;2023-11-22T10:26:25;5.18;;;3.38;;
62574;SDS011;70119;45.638;11.714;2023-11-22T10:28:53;6.00;;;3.00;;
62574;SDS011;70119;45.638;11.714;2023-11-22T10:31:20;5.85;;;3.50;;
62574;SDS011;70119;45.638;11.714;2023-11-22T10:33:47;4.75;;;3.17;;
62574;SDS011;70119;45.638;11.714;2023-11-22T10:36:14;4.80;;;3.05;;
62574;SDS011;70119;45.638;11.714;2023-11-22T10:38:40;5.55;;;2.95;;
62574;SDS011;70119;45.638;11.714;2023-11-22T10:41:11;4.88;;;3.10;;
62574;SDS011;70119;45.638;11.714;2023-11-22T10:43:38;5.05;;;3.15;;
62574;SDS011;70119;45.638;11.714;2023-11-22T10:46:07;4.70;;;3.10;;
62574;SDS011;70119;45.638;11.714;2023-11-22T10:48:37;5.10;;;3.15;;
62574;SDS011;70119;45.638;11.714;2023-11-22T10:51:04;5.15;;;3.17;;
62574;SDS011;70119;45.638;11.714;2023-11-22T10:53:34;4.80;;;3.22;;
62574;SDS011;70119;45.638;11.714;2023-11-22T10:56:14;4.75;;;3.13;;
62574;SDS011;70119;45.638;11.714;2023-11-22T10:58:50;4.80;;;3.22;;
62574;SDS011;70119;45.638;11.714;2023-11-22T11:01:18;4.57;;;3.03;;
62574;SDS011;70119;45.638;11.714;2023-11-22T11:03:55;4.60;;;3.10;;
62574;SDS011;70119;45.638;11.714;2023-11-22T11:06:32;3.92;;;2.78;;
62574;SDS011;70119;45.638;11.714;2023-11-22T11:09:00;4.70;;;2.92;;
62574;SDS011;70119;45.638;11.714;2023-11-22T11:11:30;5.13;;;3.13;;
62574;SDS011;70119;45.638;11.714;2023-11-22T11:14:00;4.32;;;2.83;;
62574;SDS011;70119;45.638;11.714;2023-11-22T11:16:28;4.10;;;2.90;;
62574;SDS011;70119;45.638;11.714;2023-11-22T11:18:56;4.82;;;3.05;;
62574;SDS011;70119;45.638;11.714;2023-11-22T11:21:23;4.03;;;2.80;;
62574;SDS011;70119;45.638;11.714;2023-11-22T11:23:51;4.22;;;2.67;;
62574;SDS011;70119;45.638;11.714;2023-11-22T11:26:20;4.32;;;2.70;;
62574;SDS011;70119;45.638;11.714;2023-11-22T11:28:47;4.05;;;2.80;;
62574;SDS011;70119;45.638;11.714;2023-11-22T11:31:15;3.38;;;2.60;;
62574;SDS011;70119;45.638;11.714;2023-11-22T11:36:24;4.13;;;2.80;;
62574;SDS011;70119;45.638;11.714;2023-11-22T11:38:52;4.25;;;2.65;;
62574;SDS011;70119;45.638;11.714;2023-11-22T11:41:23;3.85;;;2.55;;
62574;SDS011;70119;45.638;11.714;2023-11-22T11:43:51;4.10;;;2.50;;
62574;SDS011;70119;45.638;11.714;2023-11-22T11:46:17;5.13;;;2.60;;
62574;SDS011;70119;45.638;11.714;2023-11-22T11:48:44;3.92;;;2.55;;
62574;SDS011;70119;45.638;11.714;2023-11-22T11:51:14;3.42;;;2.50;;
62574;SDS011;70119;45.638;11.714;2023-11-22T11:53:41;3.85;;;2.58;;
62574;SDS011;70119;45.638;11.714;2023-11-22T11:56:08;3.72;;;2.50;;
62574;SDS011;70119;45.638;11.714;2023-11-22T11:58:35;4.32;;;2.55;;
62574;SDS011;70119;45.638;11.714;2023-11-22T12:01:00;3.47;;;2.50;;
62574;SDS011;70119;45.638;11.714;2023-11-22T12:03:27;3.05;;;2.35;;
62574;SDS011;70119;45.638;11.714;2023-11-22T12:05:54;3.88;;;2.53;;
62574;SDS011;70119;45.638;11.714;2023-11-22T12:08:20;3.65;;;2.40;;
62574;SDS011;70119;45.638;11.714;2023-11-22T12:10:45;2.60;;;2.15;;
62574;SDS011;70119;45.638;11.714;2023-11-22T12:13:18;3.22;;;2.30;;
62574;SDS011;70119;45.638;11.714;2023-11-22T12:15:45;3.45;;;2.28;;
62574;SDS011;70119;45.638;11.714;2023-11-22T12:18:15;3.58;;;2.40;;
62574;SDS011;70119;45.638;11.714;2023-11-22T12:20:41;2.80;;;2.20;;
62574;SDS011;70119;45.638;11.714;2023-11-22T12:23:07;4.05;;;2.30;;
62574;SDS011;70119;45.638;11.714;2023-11-22T12:25:34;3.20;;;2.20;;
62574;SDS011;70119;45.638;11.714;2023-11-22T12:28:00;2.80;;;2.20;;
62574;SDS011;70119;45.638;11.714;2023-11-22T12:33:05;2.65;;;2.13;;
62574;SDS011;70119;45.638;11.714;2023-11-22T12:35:35;2.83;;;2.10;;
62574;SDS011;70119;45.638;11.714;2023-11-22T12:38:01;2.90;;;1.95;;
62574;SDS011;70119;45.638;11.714;2023-11-22T12:40:34;3.15;;;2.28;;
62574;SDS011;70119;45.638;11.714;2023-11-22T12:43:09;2.95;;;2.10;;
62574;SDS011;70119;45.638;11.714;2023-11-22T12:45:39;2.60;;;2.03;;
62574;SDS011;70119;45.638;11.714;2023-11-22T12:48:22;2.80;;;2.10;;
62574;SDS011;70119;45.638;11.714;2023-11-22T12:50:49;2.30;;;2.00;;
62574;SDS011;70119;45.638;11.714;2023-11-22T12:53:15;2.78;;;2.10;;
62574;SDS011;70119;45.638;11.714;2023-11-22T12:55:44;3.05;;;2.00;;
62574;SDS011;70119;45.638;11.714;2023-11-22T12:58:13;2.80;;;2.10;;
62574;SDS011;70119;45.638;11.714;2023-11-22T13:00:39;2.33;;;2.00;;
62574;SDS011;70119;45.638;11.714;2023-11-22T13:03:08;2.95;;;1.90;;
62574;SDS011;70119;45.638;11.714;2023-11-22T13:05:36;2.15;;;1.75;;
62574;SDS011;70119;45.638;11.714;2023-11-22T13:08:02;2.53;;;2.10;;
62574;SDS011;70119;45.638;11.714;2023-11-22T13:10:31;3.70;;;2.28;;
62574;SDS011;70119;45.638;11.714;2023-11-22T13:12:57;2.92;;;2.20;;
62574;SDS011;70119;45.638;11.714;2023-11-22T13:15:23;3.42;;;1.90;;
62574;SDS011;70119;45.638;11.714;2023-11-22T13:17:54;2.65;;;2.00;;
62574;SDS011;70119;45.638;11.714;2023-11-22T13:20:23;2.83;;;2.10;;
62574;SDS011;70119;45.638;11.714;2023-11-22T13:22:52;2.27;;;1.83;;
62574;SDS011;70119;45.638;11.714;2023-11-22T13:25:19;2.75;;;1.83;;
62574;SDS011;70119;45.638;11.714;2023-11-22T13:27:46;2.38;;;1.90;;
62574;SDS011;70119;45.638;11.714;2023-11-22T13:30:13;2.67;;;1.90;;
62574;SDS011;70119;45.638;11.714;2023-11-22T13:32:48;2.58;;;2.00;;
62574;SDS011;70119;45.638;11.714;2023-11-22T13:35:14;2.72;;;2.00;;
62574;SDS011;70119;45.638;11.714;2023-11-22T13:37:42;2.38;;;1.90;;
62574;SDS011;70119;45.638;11.714;2023-11-22T13:40:12;2.78;;;1.98;;
62574;SDS011;70119;45.638;11.714;2023-11-22T13:42:45;2.65;;;1.92;;
62574;SDS011;70119;45.638;11.714;2023-11-22T13:45:13;2.10;;;1.90;;
62574;SDS011;70119;45.638;11.714;2023-11-22T13:47:49;2.85;;;2.00;;
62574;SDS011;70119;45.638;11.714;2023-11-22T13:50:18;2.63;;;1.98;;
62574;SDS011;70119;45.638;11.714;2023-11-22T13:52:50;1.90;;;1.80;;
62574;SDS011;70119;45.638;11.714;2023-11-22T13:55:17;3.35;;;2.10;;
62574;SDS011;70119;45.638;11.714;2023-11-22T13:57:47;2.50;;;1.98;;
62574;SDS011;70119;45.638;11.714;2023-11-22T14:00:15;2.70;;;2.00;;
62574;SDS011;70119;45.638;11.714;2023-11-22T14:02:48;2.25;;;1.88;;
62574;SDS011;70119;45.638;11.714;2023-11-22T14:05:18;2.40;;;1.95;;
62574;SDS011;70119;45.638;11.714;2023-11-22T14:07:44;2.95;;;1.90;;
62574;SDS011;70119;45.638;11.714;2023-11-22T14:10:11;2.33;;;2.10;;
62574;SDS011;70119;45.638;11.714;2023-11-22T14:12:41;2.33;;;1.80;;
62574;SDS011;70119;45.638;11.714;2023-11-22T14:15:09;2.33;;;1.85;;
62574;SDS011;70119;45.638;11.714;2023-11-22T14:17:36;2.85;;;1.80;;
62574;SDS011;70119;45.638;11.714;2023-11-22T14:20:04;2.60;;;1.85;;
62574;SDS011;70119;45.638;11.714;2023-11-22T14:22:32;2.25;;;1.80;;
62574;SDS011;70119;45.638;11.714;2023-11-22T14:24:58;2.42;;;1.90;;
62574;SDS011;70119;45.638;11.714;2023-11-22T14:27:25;2.67;;;1.90;;
62574;SDS011;70119;45.638;11.714;2023-11-22T14:29:53;2.10;;;1.90;;
62574;SDS011;70119;45.638;11.714;2023-11-22T14:32:19;2.38;;;1.90;;
62574;SDS011;70119;45.638;11.714;2023-11-22T14:34:48;2.03;;;1.70;;
62574;SDS011;70119;45.638;11.714;2023-11-22T14:37:14;2.28;;;1.80;;
62574;SDS011;70119;45.638;11.714;2023-11-22T14:39:40;1.77;;;1.67;;
62574;SDS011;70119;45.638;11.714;2023-11-22T14:42:08;1.92;;;1.73;;
62574;SDS011;70119;45.638;11.714;2023-11-22T14:44:34;1.83;;;1.73;;
62574;SDS011;70119;45.638;11.714;2023-11-22T14:47:00;2.15;;;1.80;;
62574;SDS011;70119;45.638;11.714;2023-11-22T14:49:32;2.28;;;1.85;;